createdAt,value
2018-08-27T00:04:11.455Z,7.60
2018-08-27T00:06:42.165Z,7.50
2018-08-27T00:09:13.647Z,7.50
2018-08-27T00:11:44.115Z,7.50
2018-08-27T00:14:15.544Z,7.50
2018-08-27T00:16:46.780Z,7.40
2018-08-27T00:19:17.288Z,7.30
2018-08-27T00:21:47.743Z,7.40
2018-08-27T00:24:17.378Z,7.30
2018-08-27T00:26:47.699Z,7.40
2018-08-27T00:29:17.859Z,7.40
2018-08-27T00:31:48.568Z,7.30
2018-08-27T00:34:18.041Z,7.30
2018-08-27T00:36:47.459Z,7.30
2018-08-27T00:39:17.914Z,7.20
2018-08-27T00:41:48.028Z,7.20
2018-08-27T00:44:18.827Z,7.20
2018-08-27T00:46:50.112Z,7.20
2018-08-27T00:49:21.402Z,7.20
2018-08-27T00:51:52.083Z,7.20
2018-08-27T00:54:21.499Z,7.20
2018-08-27T00:56:51.953Z,7.20
2018-08-27T00:59:22.097Z,7.10
2018-08-27T01:01:52.826Z,7.10
2018-08-27T01:04:22.279Z,7.20
2018-08-27T01:06:52.727Z,7.20
2018-08-27T01:09:23.856Z,7.20
2018-08-27T01:11:54.588Z,7.20
2018-08-27T01:14:25.544Z,7.10
2018-08-27T01:16:55.542Z,7.10
2018-08-27T01:19:25.619Z,7.10
2018-08-27T01:21:56.097Z,7.10
2018-08-27T01:24:26.821Z,7.10
2018-08-27T01:26:56.248Z,7.20
2018-08-27T01:29:26.392Z,7.20
2018-08-27T01:32:01.176Z,7.20
2018-08-27T01:34:31.345Z,7.20
2018-08-27T01:37:02.467Z,7.20
2018-08-27T01:39:33.419Z,7.30
2018-08-27T01:42:03.642Z,7.30
2018-08-27T01:44:34.259Z,7.30
2018-08-27T01:47:05.558Z,7.20
2018-08-27T01:49:36.005Z,7.10
2018-08-27T01:52:06.440Z,7.10
2018-08-27T01:54:37.201Z,7.10
2018-08-27T01:57:08.203Z,7.20
2018-08-27T01:59:38.767Z,7.10
2018-08-27T02:02:09.205Z,7.10
2018-08-27T02:04:39.939Z,7.10
2018-08-27T02:07:10.092Z,7.00
2018-08-27T02:09:40.536Z,7.10
2018-08-27T02:12:11.272Z,7.00
2018-08-27T02:14:40.751Z,7.00
2018-08-27T02:17:10.868Z,7.10
2018-08-27T02:19:41.306Z,7.10
2018-08-27T02:22:11.791Z,7.10
2018-08-27T02:24:42.190Z,7.10
2018-08-27T02:27:12.628Z,7.10
2018-08-27T02:29:44.060Z,7.10
2018-08-27T02:32:16.727Z,7.10
2018-08-27T02:34:47.808Z,7.10
2018-08-27T02:37:18.415Z,7.10
2018-08-27T02:39:50.776Z,7.20
2018-08-27T02:42:22.111Z,7.50
2018-08-27T02:44:53.085Z,7.60
2018-08-27T02:47:33.624Z,7.70
2018-08-27T04:00:13.279Z,8.80
2018-08-27T04:02:45.140Z,8.60
2018-08-27T04:05:17.154Z,8.30
2018-08-27T04:07:50.152Z,8.20
2018-08-27T04:10:22.118Z,8.00
2018-08-27T04:12:58.548Z,7.90
2018-08-27T04:15:31.735Z,7.80
2018-08-27T04:18:03.914Z,7.70
2018-08-27T04:20:34.897Z,7.60
2018-08-27T04:23:06.368Z,7.60
2018-08-27T04:25:38.536Z,7.60
2018-08-27T04:28:09.832Z,7.60
2018-08-27T04:30:42.161Z,7.60
2018-08-27T04:33:12.832Z,7.60
2018-08-27T04:35:44.725Z,7.60
2018-08-27T04:38:16.925Z,7.60
2018-08-27T04:40:48.716Z,7.70
2018-08-27T04:46:29.727Z,7.70
2018-08-27T04:51:40.869Z,7.80
2018-08-27T04:54:14.730Z,7.90
2018-08-27T04:56:45.986Z,8.00
2018-08-27T05:01:30.779Z,8.00
2018-08-27T05:12:53.308Z,8.40
2018-08-27T05:15:24.687Z,8.40
2018-08-27T05:17:55.032Z,8.50
2018-08-27T05:20:26.051Z,8.90
2018-08-27T05:22:57.071Z,8.90
2018-08-27T05:25:27.627Z,9.00
2018-08-27T05:27:58.820Z,9.10
2018-08-27T05:30:29.394Z,9.10
2018-08-27T05:33:00.206Z,9.20
2018-08-27T05:35:30.432Z,9.40
2018-08-27T05:38:01.545Z,9.60
2018-08-27T05:40:34.266Z,9.80
2018-08-27T05:46:34.548Z,10.70
2018-08-27T05:49:08.195Z,11.10
2018-08-27T05:51:39.371Z,11.50
2018-08-27T05:57:10.524Z,12.20
2018-08-27T05:59:41.016Z,12.30
2018-08-27T06:02:12.076Z,12.60
2018-08-27T06:04:43.048Z,13.20
2018-08-27T06:07:13.613Z,13.10
2018-08-27T06:09:43.770Z,13.20
2018-08-27T06:12:13.605Z,13.30
2018-08-27T06:14:43.509Z,13.60
2018-08-27T06:17:13.353Z,13.70
2018-08-27T06:19:43.179Z,13.70
2018-08-27T06:22:13.180Z,13.90
2018-08-27T06:24:43.763Z,14.60
2018-08-27T06:27:14.607Z,15.40
2018-08-27T06:29:44.740Z,15.70
2018-08-27T06:32:14.439Z,15.90
2018-08-27T06:34:44.345Z,15.90
2018-08-27T06:37:15.000Z,16.10
2018-08-27T06:39:45.027Z,16.40
2018-08-27T06:42:14.876Z,17.00
2018-08-27T06:44:44.772Z,16.90
2018-08-27T06:47:15.360Z,17.60
2018-08-27T06:49:45.493Z,17.80
2018-08-27T06:52:15.204Z,18.10
2018-08-27T06:54:45.191Z,18.60
2018-08-27T06:57:15.652Z,19.00
2018-08-27T06:59:45.776Z,19.40
2018-08-27T07:02:15.684Z,19.80
2018-08-27T07:04:45.532Z,19.80
2018-08-27T07:07:16.278Z,20.50
2018-08-27T07:09:47.289Z,21.00
2018-08-27T07:12:16.208Z,22.10
2018-08-27T07:14:53.159Z,22.40
2018-08-27T07:17:22.013Z,23.20
2018-08-27T07:22:32.595Z,24.40
2018-08-27T07:25:02.704Z,25.20
2018-08-27T07:27:32.107Z,25.70
2018-08-27T07:47:35.457Z,29.00
2018-08-27T07:50:05.294Z,28.30
2018-08-27T07:52:43.253Z,28.40
2018-08-27T07:55:13.129Z,28.40
2018-08-27T07:57:42.935Z,28.60
2018-08-27T08:00:16.843Z,28.70
2018-08-27T08:02:47.579Z,29.40
2018-08-27T08:05:18.456Z,29.30
2018-08-27T08:07:49.437Z,30.30
2018-08-27T08:10:19.296Z,30.10
2018-08-27T08:12:51.014Z,29.30
2018-08-27T08:15:22.021Z,28.90
2018-08-27T08:17:51.895Z,29.70
2018-08-27T08:20:21.700Z,29.40
2018-08-27T08:22:51.660Z,29.70
2018-08-27T08:25:21.431Z,29.00
2018-08-27T08:27:51.273Z,28.80
2018-08-27T08:30:21.083Z,29.20
2018-08-27T08:32:50.908Z,30.20
2018-08-27T08:35:21.704Z,30.10
2018-08-27T08:37:51.692Z,30.30
2018-08-27T08:40:21.484Z,30.80
2018-08-27T08:42:50.801Z,30.80
2018-08-27T08:45:20.996Z,30.90
2018-08-27T08:47:51.839Z,31.10
2018-08-27T08:50:21.970Z,31.80
2018-08-27T08:52:51.724Z,32.00
2018-08-27T08:55:24.715Z,32.00
2018-08-27T08:57:54.585Z,31.30
2018-08-27T09:00:25.428Z,31.60
2018-08-27T09:02:55.326Z,32.00
2018-08-27T09:05:27.785Z,31.90
2018-08-27T09:07:58.042Z,31.80
2018-08-27T09:10:35.683Z,32.00
2018-08-27T09:13:05.856Z,32.60
2018-08-27T09:15:35.704Z,32.80
2018-08-27T12:37:08.848Z,31.40
2018-08-27T12:39:39.222Z,30.60
2018-08-27T12:42:15.200Z,30.20
2018-08-27T13:00:07.985Z,29.40
2018-08-27T13:05:37.241Z,28.60
2018-08-27T13:15:21.017Z,28.90
2018-08-27T15:26:44.422Z,23.20
2018-08-27T15:29:26.044Z,23.10
2018-08-27T15:35:05.576Z,22.90
2018-08-27T15:37:37.443Z,22.70
2018-08-27T15:40:11.433Z,22.60
2018-08-27T15:42:50.872Z,22.50
2018-08-27T15:47:33.637Z,22.40
2018-08-27T15:50:04.688Z,22.40
2018-08-27T15:52:37.113Z,22.20
2018-08-27T15:55:12.250Z,21.80
2018-08-27T15:57:51.044Z,21.60
2018-08-27T16:00:22.349Z,21.50
2018-08-27T16:02:57.938Z,21.40
2018-08-27T16:05:33.182Z,21.40
2018-08-27T16:08:10.330Z,21.50
2018-08-27T16:10:43.955Z,21.20
2018-08-27T16:13:15.425Z,20.90
2018-08-27T16:15:50.479Z,20.70
2018-08-27T16:18:26.260Z,20.70
2018-08-27T16:21:00.642Z,20.60
2018-08-27T16:23:32.271Z,20.50
2018-08-27T16:26:03.658Z,20.30
2018-08-27T16:44:36.430Z,18.40
2018-08-27T16:47:08.246Z,18.20
2018-08-27T16:49:43.623Z,18.00
2018-08-27T16:52:18.803Z,17.80
2018-08-27T16:54:52.798Z,17.50
2018-08-27T17:00:06.327Z,17.20
2018-08-27T17:02:41.306Z,17.00
2018-08-27T17:11:05.313Z,16.60
2018-08-27T17:13:40.191Z,16.50
2018-08-27T17:16:13.161Z,16.40
2018-08-27T17:18:46.855Z,16.30
2018-08-27T17:21:20.375Z,16.20
2018-08-27T17:23:55.037Z,16.10
2018-08-27T17:26:27.775Z,15.90
2018-08-27T17:29:04.023Z,15.90
2018-08-27T17:31:35.333Z,15.80
2018-08-27T17:34:10.240Z,15.60
2018-08-27T17:36:42.721Z,15.50
2018-08-27T17:39:15.807Z,15.40
2018-08-27T17:41:46.212Z,15.30
2018-08-27T17:44:17.357Z,15.20
2018-08-27T17:46:49.429Z,15.10
2018-08-27T17:49:19.999Z,15.00
2018-08-27T17:51:51.356Z,14.80
2018-08-27T17:54:23.586Z,14.70
2018-08-27T17:56:54.444Z,14.70
2018-08-27T17:59:26.422Z,14.50
2018-08-27T18:01:57.191Z,14.40
2018-08-27T18:04:28.033Z,14.30
2018-08-27T18:06:58.964Z,14.20
2018-08-27T18:09:31.019Z,14.20
2018-08-27T18:12:01.615Z,14.00
2018-08-27T18:14:32.511Z,14.00
2018-08-27T18:17:03.692Z,13.90
2018-08-27T18:19:34.501Z,13.80
2018-08-27T18:22:05.108Z,13.80
2018-08-27T18:24:36.087Z,13.60
2018-08-27T18:27:06.797Z,13.50
2018-08-27T18:29:37.672Z,13.40
2018-08-27T18:32:08.905Z,13.30
2018-08-27T18:34:40.172Z,13.30
2018-08-27T18:37:11.196Z,13.30
2018-08-27T18:39:43.457Z,13.20
2018-08-27T18:42:14.012Z,13.10
2018-08-27T18:44:44.263Z,13.10
2018-08-27T18:47:15.048Z,13.10
2018-08-27T18:49:45.927Z,13.00
2018-08-27T18:52:16.936Z,12.90
2018-08-27T18:54:48.183Z,12.90
2018-08-27T18:57:19.319Z,12.80
2018-08-27T18:59:50.077Z,12.70
2018-08-27T19:02:20.965Z,12.70
2018-08-27T19:04:53.240Z,12.60
2018-08-27T19:07:24.315Z,12.60
2018-08-27T19:09:55.301Z,12.50
2018-08-27T19:12:26.355Z,12.50
2018-08-27T19:14:57.617Z,12.40
2018-08-27T19:17:29.554Z,12.30
2018-08-27T19:20:00.672Z,12.30
2018-08-27T19:22:30.902Z,12.20
2018-08-27T19:25:02.079Z,12.20
2018-08-27T19:27:32.910Z,12.20
2018-08-27T19:30:04.129Z,12.20
2018-08-27T19:32:34.656Z,12.10
2018-08-27T19:35:05.523Z,12.10
2018-08-27T19:37:36.096Z,12.00
2018-08-27T19:40:07.377Z,12.00
2018-08-27T19:42:38.189Z,12.00
2018-08-27T19:45:08.975Z,11.90
2018-08-27T19:47:39.812Z,11.90
2018-08-27T19:50:11.127Z,11.90
2018-08-27T19:52:42.093Z,11.80
2018-08-27T19:55:13.234Z,11.80
2018-08-27T19:57:44.803Z,11.90
2018-08-27T20:00:15.853Z,11.80
2018-08-27T20:02:47.119Z,11.80
2018-08-27T20:05:19.656Z,11.70
2018-08-27T20:07:49.887Z,11.70
2018-08-27T20:10:20.383Z,11.70
2018-08-27T20:12:51.262Z,11.70
2018-08-27T20:15:21.412Z,11.60
2018-08-27T20:17:53.172Z,11.60
2018-08-27T20:20:24.900Z,11.50
2018-08-27T20:22:55.724Z,11.50
2018-08-27T20:25:26.958Z,11.40
2018-08-27T20:27:57.940Z,11.40
2018-08-27T20:30:28.337Z,11.40
2018-08-27T20:32:59.807Z,11.30
2018-08-27T20:35:30.999Z,11.30
2018-08-27T20:38:02.870Z,11.30
2018-08-27T20:40:34.152Z,11.30
2018-08-27T20:43:04.945Z,11.30
2018-08-27T20:45:35.535Z,11.20
2018-08-27T20:48:06.874Z,11.30
2018-08-27T20:50:38.862Z,11.30
2018-08-27T20:53:15.668Z,11.30
2018-08-27T20:55:48.312Z,11.30
2018-08-27T20:58:19.598Z,11.30
2018-08-27T21:00:50.637Z,11.20
2018-08-27T21:03:21.916Z,11.20
2018-08-27T21:05:52.835Z,11.20
2018-08-27T21:08:23.442Z,11.10
2018-08-27T21:10:54.727Z,11.10
2018-08-27T21:13:26.379Z,11.10
2018-08-27T21:15:57.484Z,11.00
2018-08-27T21:18:28.179Z,11.00
2018-08-27T21:20:58.759Z,11.00
2018-08-27T21:23:30.925Z,11.00
2018-08-27T21:26:03.340Z,11.00
2018-08-27T21:28:34.796Z,10.90
2018-08-27T21:31:08.184Z,10.90
2018-08-27T21:33:39.147Z,10.90
2018-08-27T21:36:10.507Z,10.90
2018-08-27T21:38:40.897Z,10.90
2018-08-27T21:41:11.765Z,11.00
2018-08-27T21:43:42.748Z,10.90
2018-08-27T21:46:14.040Z,10.90
2018-08-27T21:48:48.360Z,10.90
2018-08-27T21:51:19.624Z,10.90
2018-08-27T21:53:51.496Z,10.90
2018-08-27T21:56:22.697Z,10.90
2018-08-27T21:58:53.956Z,10.90
2018-08-27T22:01:25.704Z,10.90
2018-08-27T22:04:00.412Z,10.90
2018-08-27T22:06:30.763Z,10.80
2018-08-27T22:09:00.915Z,10.80
2018-08-27T22:11:31.343Z,10.90
2018-08-27T22:14:01.919Z,10.90
2018-08-27T22:16:32.504Z,10.90
2018-08-27T22:19:05.668Z,10.80
2018-08-27T22:21:37.363Z,10.90
2018-08-27T22:24:07.585Z,10.80
2018-08-27T22:26:38.392Z,10.80
2018-08-27T22:29:09.669Z,10.80
2018-08-27T22:31:46.092Z,10.80
2018-08-27T22:34:16.703Z,10.80
2018-08-27T22:36:50.859Z,10.80
2018-08-27T22:39:27.341Z,10.80
2018-08-27T22:42:03.439Z,10.90
2018-08-27T22:44:35.958Z,11.00
2018-08-27T22:47:13.516Z,11.40
2018-08-27T22:49:46.227Z,11.60
2018-08-27T22:52:17.719Z,11.70
2018-08-27T22:54:48.107Z,11.70
2018-08-27T22:57:19.224Z,11.60
2018-08-27T22:59:54.080Z,11.60
2018-08-27T23:02:30.613Z,11.50
2018-08-27T23:05:02.592Z,11.40
2018-08-27T23:07:33.783Z,11.40
2018-08-27T23:10:04.960Z,11.30
2018-08-27T23:12:36.602Z,11.30
2018-08-27T23:15:08.748Z,11.20
2018-08-27T23:17:43.499Z,11.20
2018-08-27T23:20:15.710Z,11.20
2018-08-27T23:22:52.199Z,11.20
2018-08-27T23:25:24.993Z,11.20
2018-08-27T23:27:58.127Z,11.10
2018-08-27T23:30:29.864Z,11.10
2018-08-27T23:33:02.056Z,11.00
2018-08-27T23:35:36.168Z,10.90
2018-08-27T23:38:08.983Z,10.90
2018-08-27T23:40:41.744Z,10.90
2018-08-27T23:43:12.746Z,11.00
2018-08-27T23:45:44.716Z,11.00
2018-08-27T23:48:37.115Z,10.90
2018-08-27T23:51:30.054Z,11.00
2018-08-27T23:54:02.652Z,11.00
2018-08-27T23:56:36.549Z,11.20
